sensor_id;sensor_type;location;lat;lon;timestamp;P1;durP1;ratioP1;P2;durP2;ratioP2
17488;SDS011;8861;52.644;4.734;2024-03-08T00:02:25;54.67;;;29.90;;
17488;SDS011;8861;52.644;4.734;2024-03-08T00:04:53;58.83;;;28.87;;
17488;SDS011;8861;52.644;4.734;2024-03-08T00:07:20;53.10;;;27.07;;
17488;SDS011;8861;52.644;4.734;2024-03-08T00:09:47;53.00;;;28.47;;
17488;SDS011;8861;52.644;4.734;2024-03-08T00:12:15;52.73;;;27.67;;
17488;SDS011;8861;52.644;4.734;2024-03-08T00:14:42;53.03;;;28.50;;
17488;SDS011;8861;52.644;4.734;2024-03-08T00:17:09;50.50;;;27.43;;
17488;SDS011;8861;52.644;4.734;2024-03-08T00:19:38;52.13;;;27.83;;
17488;SDS011;8861;52.644;4.734;2024-03-08T00:22:06;54.50;;;28.17;;
17488;SDS011;8861;52.644;4.734;2024-03-08T00:24:34;54.23;;;28.37;;
17488;SDS011;8861;52.644;4.734;2024-03-08T00:27:02;50.73;;;26.77;;
17488;SDS011;8861;52.644;4.734;2024-03-08T00:29:30;52.57;;;27.03;;
17488;SDS011;8861;52.644;4.734;2024-03-08T00:31:56;51.17;;;26.80;;
17488;SDS011;8861;52.644;4.734;2024-03-08T00:34:24;57.50;;;28.03;;
17488;SDS011;8861;52.644;4.734;2024-03-08T00:36:52;53.17;;;28.00;;
17488;SDS011;8861;52.644;4.734;2024-03-08T00:39:19;52.67;;;26.67;;
17488;SDS011;8861;52.644;4.734;2024-03-08T00:41:46;50.80;;;27.57;;
17488;SDS011;8861;52.644;4.734;2024-03-08T00:44:13;53.23;;;29.13;;
17488;SDS011;8861;52.644;4.734;2024-03-08T00:46:40;53.60;;;28.40;;
17488;SDS011;8861;52.644;4.734;2024-03-08T00:49:08;59.67;;;28.83;;
17488;SDS011;8861;52.644;4.734;2024-03-08T00:51:35;54.17;;;28.50;;
17488;SDS011;8861;52.644;4.734;2024-03-08T00:54:04;54.33;;;28.60;;
17488;SDS011;8861;52.644;4.734;2024-03-08T00:56:31;52.87;;;27.93;;
17488;SDS011;8861;52.644;4.734;2024-03-08T00:58:59;49.20;;;26.50;;
17488;SDS011;8861;52.644;4.734;2024-03-08T01:01:26;54.50;;;29.07;;
17488;SDS011;8861;52.644;4.734;2024-03-08T01:03:55;52.20;;;27.53;;
17488;SDS011;8861;52.644;4.734;2024-03-08T01:06:23;51.80;;;27.50;;
17488;SDS011;8861;52.644;4.734;2024-03-08T01:08:50;49.77;;;27.23;;
17488;SDS011;8861;52.644;4.734;2024-03-08T01:11:19;49.13;;;27.50;;
17488;SDS011;8861;52.644;4.734;2024-03-08T01:13:46;52.13;;;28.43;;
17488;SDS011;8861;52.644;4.734;2024-03-08T01:16:14;50.40;;;27.23;;
17488;SDS011;8861;52.644;4.734;2024-03-08T01:18:42;51.17;;;27.37;;
17488;SDS011;8861;52.644;4.734;2024-03-08T01:21:09;51.67;;;27.03;;
17488;SDS011;8861;52.644;4.734;2024-03-08T01:23:35;48.77;;;26.60;;
17488;SDS011;8861;52.644;4.734;2024-03-08T01:26:02;46.03;;;25.77;;
17488;SDS011;8861;52.644;4.734;2024-03-08T01:28:30;47.50;;;26.03;;
17488;SDS011;8861;52.644;4.734;2024-03-08T01:30:59;50.80;;;26.77;;
17488;SDS011;8861;52.644;4.734;2024-03-08T01:33:26;50.93;;;26.90;;
17488;SDS011;8861;52.644;4.734;2024-03-08T01:35:53;53.80;;;27.87;;
17488;SDS011;8861;52.644;4.734;2024-03-08T01:38:20;47.53;;;26.80;;
17488;SDS011;8861;52.644;4.734;2024-03-08T01:40:47;47.07;;;25.90;;
17488;SDS011;8861;52.644;4.734;2024-03-08T01:43:18;51.53;;;27.57;;
17488;SDS011;8861;52.644;4.734;2024-03-08T01:45:47;54.53;;;28.33;;
17488;SDS011;8861;52.644;4.734;2024-03-08T01:48:14;53.43;;;27.93;;
17488;SDS011;8861;52.644;4.734;2024-03-08T01:50:42;52.93;;;27.93;;
17488;SDS011;8861;52.644;4.734;2024-03-08T01:53:14;48.77;;;26.80;;
17488;SDS011;8861;52.644;4.734;2024-03-08T01:55:42;49.27;;;26.87;;
17488;SDS011;8861;52.644;4.734;2024-03-08T01:58:12;52.73;;;27.43;;
17488;SDS011;8861;52.644;4.734;2024-03-08T02:00:41;48.13;;;26.70;;
17488;SDS011;8861;52.644;4.734;2024-03-08T02:03:11;50.80;;;27.63;;
17488;SDS011;8861;52.644;4.734;2024-03-08T02:05:38;52.00;;;28.20;;
17488;SDS011;8861;52.644;4.734;2024-03-08T02:08:08;53.63;;;28.23;;
17488;SDS011;8861;52.644;4.734;2024-03-08T02:10:39;55.77;;;28.73;;
17488;SDS011;8861;52.644;4.734;2024-03-08T02:13:07;49.97;;;27.80;;
17488;SDS011;8861;52.644;4.734;2024-03-08T02:15:49;51.57;;;28.33;;
17488;SDS011;8861;52.644;4.734;2024-03-08T02:18:19;54.33;;;27.83;;
17488;SDS011;8861;52.644;4.734;2024-03-08T02:20:47;55.30;;;29.57;;
17488;SDS011;8861;52.644;4.734;2024-03-08T02:23:15;51.97;;;28.23;;
17488;SDS011;8861;52.644;4.734;2024-03-08T02:25:44;49.67;;;26.77;;
17488;SDS011;8861;52.644;4.734;2024-03-08T02:28:12;54.37;;;28.13;;
17488;SDS011;8861;52.644;4.734;2024-03-08T02:30:40;58.03;;;29.93;;
17488;SDS011;8861;52.644;4.734;2024-03-08T02:33:07;53.80;;;29.17;;
17488;SDS011;8861;52.644;4.734;2024-03-08T02:35:35;54.40;;;28.43;;
17488;SDS011;8861;52.644;4.734;2024-03-08T02:38:03;53.97;;;29.70;;
17488;SDS011;8861;52.644;4.734;2024-03-08T02:40:31;53.40;;;28.13;;
17488;SDS011;8861;52.644;4.734;2024-03-08T02:42:58;53.80;;;29.17;;
17488;SDS011;8861;52.644;4.734;2024-03-08T02:45:25;55.57;;;29.00;;
17488;SDS011;8861;52.644;4.734;2024-03-08T02:47:53;54.77;;;29.50;;
17488;SDS011;8861;52.644;4.734;2024-03-08T02:50:21;56.70;;;29.17;;
17488;SDS011;8861;52.644;4.734;2024-03-08T02:52:48;54.83;;;29.90;;
17488;SDS011;8861;52.644;4.734;2024-03-08T02:55:18;54.03;;;29.27;;
17488;SDS011;8861;52.644;4.734;2024-03-08T02:57:45;56.67;;;30.13;;
17488;SDS011;8861;52.644;4.734;2024-03-08T03:00:13;51.83;;;29.33;;
17488;SDS011;8861;52.644;4.734;2024-03-08T03:02:40;51.00;;;28.60;;
17488;SDS011;8861;52.644;4.734;2024-03-08T03:05:08;52.17;;;28.50;;
17488;SDS011;8861;52.644;4.734;2024-03-08T03:07:36;54.13;;;29.87;;
17488;SDS011;8861;52.644;4.734;2024-03-08T03:10:04;55.67;;;31.40;;
17488;SDS011;8861;52.644;4.734;2024-03-08T03:12:34;56.97;;;31.13;;
17488;SDS011;8861;52.644;4.734;2024-03-08T03:15:01;60.57;;;32.03;;
17488;SDS011;8861;52.644;4.734;2024-03-08T03:17:29;56.17;;;31.77;;
17488;SDS011;8861;52.644;4.734;2024-03-08T03:19:55;56.03;;;32.07;;
17488;SDS011;8861;52.644;4.734;2024-03-08T03:22:23;53.83;;;30.97;;
17488;SDS011;8861;52.644;4.734;2024-03-08T03:24:50;59.97;;;31.37;;
17488;SDS011;8861;52.644;4.734;2024-03-08T03:27:18;57.70;;;31.43;;
17488;SDS011;8861;52.644;4.734;2024-03-08T03:29:46;57.83;;;32.50;;
17488;SDS011;8861;52.644;4.734;2024-03-08T03:32:14;58.80;;;32.57;;
17488;SDS011;8861;52.644;4.734;2024-03-08T03:34:43;58.43;;;32.27;;
17488;SDS011;8861;52.644;4.734;2024-03-08T03:37:11;57.50;;;31.60;;
17488;SDS011;8861;52.644;4.734;2024-03-08T03:39:39;56.37;;;31.97;;
17488;SDS011;8861;52.644;4.734;2024-03-08T03:42:13;56.17;;;31.43;;
17488;SDS011;8861;52.644;4.734;2024-03-08T03:44:41;62.80;;;33.17;;
17488;SDS011;8861;52.644;4.734;2024-03-08T03:47:10;56.83;;;31.03;;
17488;SDS011;8861;52.644;4.734;2024-03-08T03:49:37;59.40;;;31.57;;
17488;SDS011;8861;52.644;4.734;2024-03-08T03:52:05;53.80;;;30.00;;
17488;SDS011;8861;52.644;4.734;2024-03-08T03:54:32;59.07;;;31.57;;
17488;SDS011;8861;52.644;4.734;2024-03-08T03:56:59;58.93;;;30.80;;
17488;SDS011;8861;52.644;4.734;2024-03-08T03:59:27;55.07;;;30.70;;
17488;SDS011;8861;52.644;4.734;2024-03-08T04:01:54;55.17;;;31.13;;
17488;SDS011;8861;52.644;4.734;2024-03-08T04:09:34;61.03;;;32.00;;
17488;SDS011;8861;52.644;4.734;2024-03-08T04:12:01;59.13;;;31.83;;
17488;SDS011;8861;52.644;4.734;2024-03-08T04:14:28;56.47;;;30.63;;
17488;SDS011;8861;52.644;4.734;2024-03-08T04:16:55;54.17;;;30.60;;
17488;SDS011;8861;52.644;4.734;2024-03-08T04:19:22;56.77;;;30.53;;
17488;SDS011;8861;52.644;4.734;2024-03-08T04:21:51;56.80;;;30.77;;
17488;SDS011;8861;52.644;4.734;2024-03-08T04:24:18;54.03;;;29.50;;
17488;SDS011;8861;52.644;4.734;2024-03-08T04:26:47;58.27;;;31.50;;
17488;SDS011;8861;52.644;4.734;2024-03-08T04:29:14;55.43;;;30.57;;
17488;SDS011;8861;52.644;4.734;2024-03-08T04:31:42;62.93;;;33.83;;
17488;SDS011;8861;52.644;4.734;2024-03-08T04:34:09;60.10;;;33.53;;
17488;SDS011;8861;52.644;4.734;2024-03-08T04:36:36;58.70;;;31.93;;
17488;SDS011;8861;52.644;4.734;2024-03-08T04:39:03;61.30;;;33.10;;
17488;SDS011;8861;52.644;4.734;2024-03-08T04:41:30;59.87;;;32.27;;
17488;SDS011;8861;52.644;4.734;2024-03-08T04:44:00;61.10;;;32.40;;
17488;SDS011;8861;52.644;4.734;2024-03-08T04:46:28;58.97;;;31.93;;
17488;SDS011;8861;52.644;4.734;2024-03-08T04:48:55;60.53;;;32.20;;
17488;SDS011;8861;52.644;4.734;2024-03-08T04:51:23;56.90;;;30.57;;
17488;SDS011;8861;52.644;4.734;2024-03-08T04:53:51;56.87;;;31.37;;
17488;SDS011;8861;52.644;4.734;2024-03-08T04:56:18;55.43;;;30.53;;
17488;SDS011;8861;52.644;4.734;2024-03-08T04:58:46;62.60;;;31.90;;
17488;SDS011;8861;52.644;4.734;2024-03-08T05:01:15;58.97;;;32.27;;
17488;SDS011;8861;52.644;4.734;2024-03-08T05:03:42;56.50;;;31.57;;
17488;SDS011;8861;52.644;4.734;2024-03-08T05:06:09;59.87;;;32.53;;
17488;SDS011;8861;52.644;4.734;2024-03-08T05:08:35;60.40;;;32.07;;
17488;SDS011;8861;52.644;4.734;2024-03-08T05:11:03;61.93;;;34.33;;
17488;SDS011;8861;52.644;4.734;2024-03-08T05:13:32;59.37;;;32.23;;
17488;SDS011;8861;52.644;4.734;2024-03-08T05:15:59;55.93;;;30.73;;
17488;SDS011;8861;52.644;4.734;2024-03-08T05:18:27;62.93;;;31.53;;
17488;SDS011;8861;52.644;4.734;2024-03-08T05:20:57;58.33;;;31.57;;
17488;SDS011;8861;52.644;4.734;2024-03-08T05:23:24;62.63;;;33.63;;
17488;SDS011;8861;52.644;4.734;2024-03-08T05:25:51;64.00;;;34.87;;
17488;SDS011;8861;52.644;4.734;2024-03-08T05:28:17;60.90;;;33.07;;
17488;SDS011;8861;52.644;4.734;2024-03-08T05:30:45;59.00;;;32.37;;
17488;SDS011;8861;52.644;4.734;2024-03-08T05:33:12;62.20;;;33.53;;
17488;SDS011;8861;52.644;4.734;2024-03-08T05:35:41;60.90;;;33.77;;
17488;SDS011;8861;52.644;4.734;2024-03-08T05:38:08;61.17;;;33.50;;
17488;SDS011;8861;52.644;4.734;2024-03-08T05:40:35;61.60;;;33.40;;
17488;SDS011;8861;52.644;4.734;2024-03-08T05:45:37;63.07;;;32.87;;
17488;SDS011;8861;52.644;4.734;2024-03-08T05:48:05;57.27;;;31.87;;
17488;SDS011;8861;52.644;4.734;2024-03-08T05:50:33;62.60;;;32.53;;
17488;SDS011;8861;52.644;4.734;2024-03-08T05:53:02;59.50;;;32.07;;
17488;SDS011;8861;52.644;4.734;2024-03-08T05:55:31;60.10;;;32.50;;
17488;SDS011;8861;52.644;4.734;2024-03-08T05:58:00;63.00;;;34.10;;
17488;SDS011;8861;52.644;4.734;2024-03-08T06:00:27;68.23;;;35.33;;
17488;SDS011;8861;52.644;4.734;2024-03-08T06:02:56;61.77;;;33.50;;
17488;SDS011;8861;52.644;4.734;2024-03-08T06:05:23;61.47;;;33.97;;
17488;SDS011;8861;52.644;4.734;2024-03-08T06:07:50;67.00;;;34.43;;
17488;SDS011;8861;52.644;4.734;2024-03-08T06:10:20;62.67;;;33.17;;
17488;SDS011;8861;52.644;4.734;2024-03-08T06:12:47;63.87;;;35.10;;
17488;SDS011;8861;52.644;4.734;2024-03-08T06:15:14;62.00;;;34.00;;
17488;SDS011;8861;52.644;4.734;2024-03-08T06:17:41;63.90;;;34.67;;
17488;SDS011;8861;52.644;4.734;2024-03-08T06:20:08;64.27;;;34.50;;
17488;SDS011;8861;52.644;4.734;2024-03-08T06:22:38;64.50;;;34.83;;
17488;SDS011;8861;52.644;4.734;2024-03-08T06:25:06;63.00;;;34.07;;
17488;SDS011;8861;52.644;4.734;2024-03-08T06:27:35;60.73;;;33.27;;
17488;SDS011;8861;52.644;4.734;2024-03-08T06:30:02;60.40;;;34.03;;
17488;SDS011;8861;52.644;4.734;2024-03-08T06:32:30;60.97;;;33.77;;
17488;SDS011;8861;52.644;4.734;2024-03-08T06:35:00;61.87;;;33.73;;
17488;SDS011;8861;52.644;4.734;2024-03-08T06:37:27;61.43;;;33.47;;
17488;SDS011;8861;52.644;4.734;2024-03-08T06:39:54;64.67;;;34.97;;
17488;SDS011;8861;52.644;4.734;2024-03-08T06:42:21;63.40;;;34.67;;
17488;SDS011;8861;52.644;4.734;2024-03-08T06:44:49;64.00;;;34.10;;
17488;SDS011;8861;52.644;4.734;2024-03-08T06:47:16;69.80;;;36.23;;
17488;SDS011;8861;52.644;4.734;2024-03-08T06:49:43;61.27;;;33.00;;
17488;SDS011;8861;52.644;4.734;2024-03-08T06:52:11;64.67;;;34.13;;
17488;SDS011;8861;52.644;4.734;2024-03-08T06:54:38;64.60;;;34.23;;
17488;SDS011;8861;52.644;4.734;2024-03-08T06:57:05;63.33;;;35.30;;
17488;SDS011;8861;52.644;4.734;2024-03-08T06:59:32;61.30;;;33.40;;
17488;SDS011;8861;52.644;4.734;2024-03-08T07:02:03;64.00;;;34.10;;
17488;SDS011;8861;52.644;4.734;2024-03-08T07:04:30;60.80;;;32.80;;
17488;SDS011;8861;52.644;4.734;2024-03-08T07:06:58;64.70;;;35.17;;
17488;SDS011;8861;52.644;4.734;2024-03-08T07:09:29;63.80;;;34.60;;
17488;SDS011;8861;52.644;4.734;2024-03-08T07:11:56;64.03;;;34.83;;
17488;SDS011;8861;52.644;4.734;2024-03-08T07:14:23;63.73;;;35.27;;
17488;SDS011;8861;52.644;4.734;2024-03-08T07:16:50;61.83;;;34.60;;
17488;SDS011;8861;52.644;4.734;2024-03-08T07:19:19;62.20;;;33.87;;
17488;SDS011;8861;52.644;4.734;2024-03-08T07:21:46;64.67;;;35.10;;
17488;SDS011;8861;52.644;4.734;2024-03-08T07:24:15;65.10;;;36.10;;
17488;SDS011;8861;52.644;4.734;2024-03-08T07:27:04;65.70;;;35.83;;
17488;SDS011;8861;52.644;4.734;2024-03-08T07:29:31;65.77;;;36.40;;
17488;SDS011;8861;52.644;4.734;2024-03-08T07:37:00;66.93;;;36.30;;
17488;SDS011;8861;52.644;4.734;2024-03-08T07:39:29;65.87;;;36.13;;
17488;SDS011;8861;52.644;4.734;2024-03-08T07:41:56;67.37;;;37.17;;
17488;SDS011;8861;52.644;4.734;2024-03-08T07:44:23;65.83;;;35.90;;
17488;SDS011;8861;52.644;4.734;2024-03-08T07:46:50;66.67;;;37.07;;
17488;SDS011;8861;52.644;4.734;2024-03-08T07:49:18;62.77;;;35.37;;
17488;SDS011;8861;52.644;4.734;2024-03-08T07:51:46;64.40;;;35.27;;
17488;SDS011;8861;52.644;4.734;2024-03-08T07:54:15;62.17;;;34.73;;
17488;SDS011;8861;52.644;4.734;2024-03-08T07:56:42;65.53;;;35.97;;
17488;SDS011;8861;52.644;4.734;2024-03-08T07:59:09;64.43;;;36.87;;
17488;SDS011;8861;52.644;4.734;2024-03-08T08:01:38;68.17;;;36.20;;
17488;SDS011;8861;52.644;4.734;2024-03-08T08:04:05;66.43;;;37.03;;
17488;SDS011;8861;52.644;4.734;2024-03-08T08:06:37;64.63;;;35.90;;
17488;SDS011;8861;52.644;4.734;2024-03-08T08:09:06;67.40;;;36.30;;
17488;SDS011;8861;52.644;4.734;2024-03-08T08:11:41;66.20;;;36.10;;
17488;SDS011;8861;52.644;4.734;2024-03-08T08:14:08;60.47;;;34.67;;
17488;SDS011;8861;52.644;4.734;2024-03-08T08:16:35;64.73;;;36.13;;
17488;SDS011;8861;52.644;4.734;2024-03-08T08:19:03;66.50;;;35.83;;
17488;SDS011;8861;52.644;4.734;2024-03-08T08:21:32;61.27;;;34.33;;
17488;SDS011;8861;52.644;4.734;2024-03-08T08:24:00;60.47;;;33.60;;
17488;SDS011;8861;52.644;4.734;2024-03-08T08:26:28;60.97;;;34.57;;
17488;SDS011;8861;52.644;4.734;2024-03-08T08:28:57;62.27;;;34.80;;
17488;SDS011;8861;52.644;4.734;2024-03-08T08:31:24;62.00;;;35.03;;
17488;SDS011;8861;52.644;4.734;2024-03-08T08:33:52;62.97;;;34.70;;
17488;SDS011;8861;52.644;4.734;2024-03-08T08:36:23;60.93;;;34.00;;
17488;SDS011;8861;52.644;4.734;2024-03-08T08:38:50;66.03;;;35.70;;
17488;SDS011;8861;52.644;4.734;2024-03-08T08:41:19;61.43;;;35.00;;
17488;SDS011;8861;52.644;4.734;2024-03-08T08:43:46;63.17;;;35.57;;
17488;SDS011;8861;52.644;4.734;2024-03-08T08:46:17;63.13;;;34.93;;
17488;SDS011;8861;52.644;4.734;2024-03-08T08:48:44;61.40;;;34.50;;
17488;SDS011;8861;52.644;4.734;2024-03-08T08:51:11;60.73;;;34.53;;
17488;SDS011;8861;52.644;4.734;2024-03-08T08:53:39;64.23;;;34.87;;
17488;SDS011;8861;52.644;4.734;2024-03-08T08:56:07;54.77;;;32.70;;
17488;SDS011;8861;52.644;4.734;2024-03-08T08:58:37;58.80;;;32.77;;
17488;SDS011;8861;52.644;4.734;2024-03-08T09:01:05;64.73;;;35.83;;
17488;SDS011;8861;52.644;4.734;2024-03-08T09:03:34;62.53;;;34.93;;
17488;SDS011;8861;52.644;4.734;2024-03-08T09:06:02;58.93;;;34.97;;
17488;SDS011;8861;52.644;4.734;2024-03-08T09:08:29;58.87;;;33.33;;
17488;SDS011;8861;52.644;4.734;2024-03-08T09:10:56;57.97;;;33.17;;
17488;SDS011;8861;52.644;4.734;2024-03-08T09:13:24;63.53;;;34.87;;
17488;SDS011;8861;52.644;4.734;2024-03-08T09:15:51;62.23;;;34.37;;
17488;SDS011;8861;52.644;4.734;2024-03-08T09:18:18;58.70;;;33.13;;
17488;SDS011;8861;52.644;4.734;2024-03-08T09:20:47;60.07;;;33.00;;
17488;SDS011;8861;52.644;4.734;2024-03-08T09:23:13;61.03;;;33.93;;
17488;SDS011;8861;52.644;4.734;2024-03-08T09:25:42;58.40;;;33.27;;
17488;SDS011;8861;52.644;4.734;2024-03-08T09:28:09;60.33;;;35.47;;
17488;SDS011;8861;52.644;4.734;2024-03-08T09:30:37;59.80;;;33.90;;
17488;SDS011;8861;52.644;4.734;2024-03-08T09:33:04;61.50;;;34.60;;
17488;SDS011;8861;52.644;4.734;2024-03-08T09:35:31;61.10;;;34.50;;
17488;SDS011;8861;52.644;4.734;2024-03-08T09:37:59;58.00;;;33.00;;
17488;SDS011;8861;52.644;4.734;2024-03-08T09:40:26;56.30;;;33.10;;
17488;SDS011;8861;52.644;4.734;2024-03-08T09:42:57;56.87;;;32.97;;
17488;SDS011;8861;52.644;4.734;2024-03-08T09:45:24;58.80;;;32.97;;
17488;SDS011;8861;52.644;4.734;2024-03-08T09:47:52;59.13;;;32.77;;
17488;SDS011;8861;52.644;4.734;2024-03-08T09:50:19;60.47;;;33.60;;
17488;SDS011;8861;52.644;4.734;2024-03-08T09:52:47;57.27;;;32.77;;
17488;SDS011;8861;52.644;4.734;2024-03-08T09:55:17;54.97;;;31.50;;
17488;SDS011;8861;52.644;4.734;2024-03-08T09:57:47;61.87;;;32.97;;
17488;SDS011;8861;52.644;4.734;2024-03-08T10:00:41;60.57;;;33.93;;
17488;SDS011;8861;52.644;4.734;2024-03-08T10:03:08;58.10;;;33.27;;
17488;SDS011;8861;52.644;4.734;2024-03-08T10:05:35;54.40;;;31.47;;
17488;SDS011;8861;52.644;4.734;2024-03-08T10:08:03;61.20;;;33.73;;
17488;SDS011;8861;52.644;4.734;2024-03-08T10:10:34;58.27;;;32.87;;
17488;SDS011;8861;52.644;4.734;2024-03-08T10:13:02;57.50;;;32.13;;
17488;SDS011;8861;52.644;4.734;2024-03-08T10:15:32;52.70;;;31.27;;
17488;SDS011;8861;52.644;4.734;2024-03-08T10:17:59;57.87;;;33.40;;
17488;SDS011;8861;52.644;4.734;2024-03-08T10:20:27;55.33;;;32.10;;
17488;SDS011;8861;52.644;4.734;2024-03-08T10:22:58;55.87;;;32.33;;
17488;SDS011;8861;52.644;4.734;2024-03-08T10:25:25;57.60;;;32.63;;
17488;SDS011;8861;52.644;4.734;2024-03-08T10:27:54;54.87;;;31.97;;
17488;SDS011;8861;52.644;4.734;2024-03-08T10:30:22;56.70;;;32.00;;
17488;SDS011;8861;52.644;4.734;2024-03-08T10:32:49;58.23;;;32.30;;
17488;SDS011;8861;52.644;4.734;2024-03-08T10:35:17;53.47;;;31.43;;
17488;SDS011;8861;52.644;4.734;2024-03-08T10:37:46;55.60;;;31.83;;
17488;SDS011;8861;52.644;4.734;2024-03-08T10:40:15;53.40;;;31.43;;
17488;SDS011;8861;52.644;4.734;2024-03-08T10:42:47;51.40;;;30.23;;
17488;SDS011;8861;52.644;4.734;2024-03-08T10:45:23;56.50;;;31.17;;
17488;SDS011;8861;52.644;4.734;2024-03-08T10:48:04;57.30;;;33.07;;
17488;SDS011;8861;52.644;4.734;2024-03-08T10:50:44;57.67;;;32.30;;
17488;SDS011;8861;52.644;4.734;2024-03-08T10:53:15;53.17;;;31.57;;
17488;SDS011;8861;52.644;4.734;2024-03-08T10:55:46;54.00;;;31.40;;
17488;SDS011;8861;52.644;4.734;2024-03-08T10:58:14;52.90;;;30.70;;
17488;SDS011;8861;52.644;4.734;2024-03-08T11:00:43;52.30;;;30.33;;
17488;SDS011;8861;52.644;4.734;2024-03-08T11:03:25;53.07;;;31.07;;
17488;SDS011;8861;52.644;4.734;2024-03-08T11:06:13;51.47;;;30.77;;
17488;SDS011;8861;52.644;4.734;2024-03-08T11:08:42;52.23;;;30.90;;
17488;SDS011;8861;52.644;4.734;2024-03-08T11:11:23;52.53;;;31.20;;
17488;SDS011;8861;52.644;4.734;2024-03-08T11:13:55;53.50;;;30.53;;
17488;SDS011;8861;52.644;4.734;2024-03-08T11:16:38;50.47;;;31.37;;
17488;SDS011;8861;52.644;4.734;2024-03-08T11:19:23;50.87;;;29.93;;
17488;SDS011;8861;52.644;4.734;2024-03-08T11:21:59;53.90;;;31.50;;
17488;SDS011;8861;52.644;4.734;2024-03-08T11:24:27;51.93;;;31.50;;
17488;SDS011;8861;52.644;4.734;2024-03-08T11:27:03;55.70;;;30.50;;
17488;SDS011;8861;52.644;4.734;2024-03-08T11:29:38;52.63;;;31.33;;
17488;SDS011;8861;52.644;4.734;2024-03-08T11:32:10;51.73;;;31.03;;
17488;SDS011;8861;52.644;4.734;2024-03-08T11:34:40;52.90;;;31.27;;
17488;SDS011;8861;52.644;4.734;2024-03-08T11:37:12;50.63;;;30.30;;
17488;SDS011;8861;52.644;4.734;2024-03-08T11:39:40;48.07;;;29.77;;
17488;SDS011;8861;52.644;4.734;2024-03-08T11:42:12;47.33;;;28.93;;
17488;SDS011;8861;52.644;4.734;2024-03-08T11:44:39;54.90;;;30.77;;
17488;SDS011;8861;52.644;4.734;2024-03-08T11:47:11;50.87;;;30.00;;
17488;SDS011;8861;52.644;4.734;2024-03-08T11:49:38;50.33;;;30.23;;
17488;SDS011;8861;52.644;4.734;2024-03-08T11:52:10;49.40;;;29.33;;
17488;SDS011;8861;52.644;4.734;2024-03-08T11:54:39;49.63;;;29.27;;
17488;SDS011;8861;52.644;4.734;2024-03-08T11:57:06;50.33;;;30.20;;
17488;SDS011;8861;52.644;4.734;2024-03-08T11:59:36;49.47;;;29.37;;
17488;SDS011;8861;52.644;4.734;2024-03-08T12:02:06;51.70;;;30.23;;
17488;SDS011;8861;52.644;4.734;2024-03-08T12:04:36;50.03;;;30.70;;
17488;SDS011;8861;52.644;4.734;2024-03-08T12:07:03;52.97;;;30.30;;
17488;SDS011;8861;52.644;4.734;2024-03-08T12:09:35;49.20;;;30.37;;
17488;SDS011;8861;52.644;4.734;2024-03-08T12:12:02;50.50;;;29.67;;
17488;SDS011;8861;52.644;4.734;2024-03-08T12:14:31;45.17;;;27.87;;
17488;SDS011;8861;52.644;4.734;2024-03-08T12:16:58;47.63;;;29.13;;
17488;SDS011;8861;52.644;4.734;2024-03-08T12:19:26;46.07;;;28.87;;
17488;SDS011;8861;52.644;4.734;2024-03-08T12:21:55;45.67;;;28.27;;
17488;SDS011;8861;52.644;4.734;2024-03-08T12:24:22;47.37;;;28.30;;
17488;SDS011;8861;52.644;4.734;2024-03-08T12:26:51;48.30;;;29.17;;
17488;SDS011;8861;52.644;4.734;2024-03-08T12:29:18;49.43;;;29.23;;
17488;SDS011;8861;52.644;4.734;2024-03-08T12:31:47;46.43;;;28.17;;
17488;SDS011;8861;52.644;4.734;2024-03-08T12:34:17;48.40;;;29.20;;
17488;SDS011;8861;52.644;4.734;2024-03-08T12:36:45;46.10;;;27.80;;
17488;SDS011;8861;52.644;4.734;2024-03-08T12:39:18;40.57;;;26.70;;
17488;SDS011;8861;52.644;4.734;2024-03-08T12:41:51;46.67;;;28.17;;
17488;SDS011;8861;52.644;4.734;2024-03-08T12:44:18;46.40;;;27.87;;
17488;SDS011;8861;52.644;4.734;2024-03-08T12:46:46;43.53;;;27.37;;
17488;SDS011;8861;52.644;4.734;2024-03-08T12:49:14;45.27;;;27.97;;
17488;SDS011;8861;52.644;4.734;2024-03-08T12:51:42;42.73;;;26.97;;
17488;SDS011;8861;52.644;4.734;2024-03-08T12:54:10;42.87;;;26.10;;
17488;SDS011;8861;52.644;4.734;2024-03-08T12:56:39;41.30;;;26.37;;
17488;SDS011;8861;52.644;4.734;2024-03-08T12:59:06;38.90;;;25.60;;
17488;SDS011;8861;52.644;4.734;2024-03-08T13:01:35;41.00;;;25.87;;
17488;SDS011;8861;52.644;4.734;2024-03-08T13:04:03;39.87;;;26.43;;
17488;SDS011;8861;52.644;4.734;2024-03-08T13:06:31;44.20;;;25.80;;
17488;SDS011;8861;52.644;4.734;2024-03-08T13:09:01;40.70;;;25.87;;
17488;SDS011;8861;52.644;4.734;2024-03-08T13:11:30;43.03;;;26.93;;
17488;SDS011;8861;52.644;4.734;2024-03-08T13:14:03;43.33;;;26.63;;
17488;SDS011;8861;52.644;4.734;2024-03-08T13:16:32;43.97;;;27.63;;
17488;SDS011;8861;52.644;4.734;2024-03-08T13:18:59;42.43;;;26.63;;
17488;SDS011;8861;52.644;4.734;2024-03-08T13:21:27;43.40;;;27.07;;
17488;SDS011;8861;52.644;4.734;2024-03-08T13:23:56;42.30;;;27.40;;
17488;SDS011;8861;52.644;4.734;2024-03-08T13:26:27;44.17;;;27.33;;
17488;SDS011;8861;52.644;4.734;2024-03-08T13:28:57;42.23;;;27.13;;
17488;SDS011;8861;52.644;4.734;2024-03-08T13:31:26;42.47;;;26.87;;
17488;SDS011;8861;52.644;4.734;2024-03-08T13:33:53;41.20;;;27.73;;
17488;SDS011;8861;52.644;4.734;2024-03-08T13:36:23;40.40;;;27.00;;
17488;SDS011;8861;52.644;4.734;2024-03-08T13:38:56;38.17;;;25.50;;
17488;SDS011;8861;52.644;4.734;2024-03-08T13:41:24;43.43;;;27.60;;
17488;SDS011;8861;52.644;4.734;2024-03-08T13:43:51;39.93;;;26.00;;
17488;SDS011;8861;52.644;4.734;2024-03-08T13:46:20;42.17;;;26.03;;
17488;SDS011;8861;52.644;4.734;2024-03-08T13:48:51;44.03;;;27.17;;
17488;SDS011;8861;52.644;4.734;2024-03-08T13:51:19;41.43;;;26.20;;
17488;SDS011;8861;52.644;4.734;2024-03-08T13:53:47;43.43;;;27.30;;
17488;SDS011;8861;52.644;4.734;2024-03-08T13:56:14;41.33;;;26.47;;
17488;SDS011;8861;52.644;4.734;2024-03-08T13:58:42;40.93;;;26.50;;
17488;SDS011;8861;52.644;4.734;2024-03-08T14:01:09;41.63;;;25.73;;
17488;SDS011;8861;52.644;4.734;2024-03-08T14:03:38;42.03;;;26.10;;
17488;SDS011;8861;52.644;4.734;2024-03-08T14:06:08;44.03;;;26.63;;
17488;SDS011;8861;52.644;4.734;2024-03-08T14:08:35;41.83;;;26.47;;
17488;SDS011;8861;52.644;4.734;2024-03-08T14:11:03;41.23;;;26.47;;
17488;SDS011;8861;52.644;4.734;2024-03-08T14:13:40;40.73;;;24.90;;
17488;SDS011;8861;52.644;4.734;2024-03-08T14:16:09;39.47;;;24.97;;
17488;SDS011;8861;52.644;4.734;2024-03-08T14:18:36;39.30;;;25.33;;
17488;SDS011;8861;52.644;4.734;2024-03-08T14:21:03;38.63;;;25.10;;
17488;SDS011;8861;52.644;4.734;2024-03-08T14:23:33;46.00;;;27.23;;
17488;SDS011;8861;52.644;4.734;2024-03-08T14:26:01;40.80;;;25.40;;
17488;SDS011;8861;52.644;4.734;2024-03-08T14:28:29;41.00;;;26.17;;
17488;SDS011;8861;52.644;4.734;2024-03-08T14:30:57;39.83;;;25.77;;
17488;SDS011;8861;52.644;4.734;2024-03-08T14:33:27;39.17;;;25.23;;
17488;SDS011;8861;52.644;4.734;2024-03-08T14:35:55;42.10;;;26.03;;
17488;SDS011;8861;52.644;4.734;2024-03-08T14:38:22;38.70;;;24.97;;
17488;SDS011;8861;52.644;4.734;2024-03-08T14:40:53;42.03;;;26.13;;
17488;SDS011;8861;52.644;4.734;2024-03-08T14:43:20;42.27;;;25.60;;
17488;SDS011;8861;52.644;4.734;2024-03-08T14:45:47;39.23;;;24.83;;
17488;SDS011;8861;52.644;4.734;2024-03-08T14:48:15;38.00;;;24.60;;
17488;SDS011;8861;52.644;4.734;2024-03-08T14:50:42;40.47;;;25.67;;
17488;SDS011;8861;52.644;4.734;2024-03-08T14:53:12;42.60;;;26.87;;
17488;SDS011;8861;52.644;4.734;2024-03-08T14:55:40;41.47;;;26.53;;